Terminal Aerodrome Forecast
Issued by NWS

Home | Current Version | Previous Version | Text Only | Print | Product List | Glossary On
Versions: 1 2 3 4 5 6 7 8 9 10 11 12 13 14 15 16 17 18 19 20 21 22 23
000
FTPA31 PHFO 091141
TAFHNY
TAF
PHNY 091141Z 0912/1012 VRB03KT 5SM RA BR SCT002 OVC040
      TEMPO 0912/0916 1/2SM RA FG BKN002
     FM091800 VRB03KT 6SM -RA BR SCT003 SCT025 OVC050
      TEMPO 0918/0921 1SM RA BR BKN003
     FM092100 19010KT P6SM VCSH SCT015 BKN035
      TEMPO 0921/1001 3SM SHRA BR BKN015
     FM100600 VRB04KT P6SM SCT010 BKN020=

USA.gov is the U.S. government's official web portal to all federal, state and local government web resources and services.